Jolyn — PJWG — position and weather

sailwx.info

Track history (hours):
 
Tides and Currents Weather Stations Pressure Air Temp Water Temp Dewpoint Dewpoint Depression Visibility Wind Speed Wind Dir Waves Ship Positions

Jolyn

Last reported at 2016-Jun-30 20:33 UTC. Time now 2016-Jun-30 21:27 UTC.
Position N 54°05' E 009°19'.

Length 89 m; draft 5.4 m.

Type: Cargo ship. MMSI: 306813000.

Date/timePositionNaut miles runAvg speedWind from/ knotsBaromVisibWave heightAir tempDewpointWater temp
2016-Jun-30 20:33N 54°05' E 009°19'8 7.4
2016-Jun-30 19:25N 54°11' E 009°29'7 7.7
2016-Jun-30 18:32N 54°16' E 009°38'8 8.0
2016-Jun-30 17:33N 54°21' E 009°47'7 7.2
2016-Jun-30 16:33N 54°21' E 009°59'6 5.6
2016-Jun-30 15:33N 54°22' E 010°08'2 2.0
2016-Jun-30 14:33N 54°23' E 010°11'9 9.1
2016-Jun-30 13:33N 54°30' E 010°20'1010.2
2016-Jun-30 12:33N 54°34' E 010°36'1010.3
2016-Jun-30 11:33N 54°35' E 010°54'1010.2
2016-Jun-30 10:33N 54°35' E 011°12'1010.2
2016-Jun-30 09:33N 54°31' E 011°28'1110.6
2016-Jun-30 08:33N 54°28' E 011°45'1010.2
2016-Jun-30 07:33N 54°27' E 012°03'8 8.4
2016-Jun-30 06:33N 54°33' E 012°13'10 9.7
2016-Jun-30 05:32N 54°40' E 012°24'3110.2
2016-Jun-30 02:31N 54°54' E 013°13'1210.7
2016-Jun-30 01:24N 54°58' E 013°32'910.4
2016-Jun-30 00:33N 55°01' E 013°46'1010.1
2016-Jun-29 23:33N 55°05' E 014°03'1010.3
2016-Jun-29 22:33N 55°12' E 014°15'1010.4
2016-Jun-29 21:34N 55°20' E 014°27'1010.2
2016-Jun-29 20:33N 55°27' E 014°40'1010.0
2016-Jun-29 19:33N 55°32' E 014°55'10 9.8
2016-Jun-29 18:33N 55°37' E 015°10'29810.1
2016-Jun-28 13:06N 59°09' E 021°40'1610.2
2016-Jun-28 11:32N 59°19' E 022°04'1010.3
2016-Jun-28 10:32N 59°25' E 022°20'1010.3
2016-Jun-28 09:33N 59°31' E 022°36'1110.6
2016-Jun-28 08:33N 59°34' E 022°56'1110.0
2016-Jun-28 07:26N 59°37' E 023°18'9 9.9
2016-Jun-28 06:33N 59°40' E 023°34'30 9.9
2016-Jun-28 03:30N 59°48' E 024°32'2010.0
2016-Jun-28 01:28N 59°52' E 025°12'31 9.6
2016-Jun-27 22:14N 60°04' E 026°09'7 9.9
2016-Jun-27 21:33N 60°08' E 026°20'10 9.7
2016-Jun-27 20:33N 60°16' E 026°30'1010.3
2016-Jun-27 19:33N 60°23' E 026°46'8 8.3
2016-Jun-27 18:33N 60°29' E 026°57'0 0.1
2016-Jun-27 17:30N 60°29' E 026°57'0 0.0
2016-Jun-27 16:33N 60°29' E 026°57'0 0.0
2016-Jun-27 15:33N 60°29' E 026°57'0 0.0
2016-Jun-27 14:33N 60°29' E 026°57'0 0.0
2016-Jun-27 13:33N 60°29' E 026°57'0 0.0
2016-Jun-27 12:33N 60°29' E 026°57'0 0.0
2016-Jun-27 11:33N 60°29' E 026°57'0 0.0
2016-Jun-27 10:33N 60°29' E 026°57'0 0.1
2016-Jun-27 09:33N 60°29' E 026°57'0 0.0
2016-Jun-27 08:33N 60°29' E 026°57'0 0.0
2016-Jun-27 07:33N 60°29' E 026°57'0 0.0
2016-Jun-27 06:33N 60°29' E 026°57'0 0.0
2016-Jun-27 05:33N 60°29' E 026°57'0 0.0
2016-Jun-27 04:33N 60°29' E 026°57'0 0.0
2016-Jun-27 03:33N 60°29' E 026°57'0 0.0
2016-Jun-27 02:33N 60°29' E 026°57'0 0.0
2016-Jun-27 01:33N 60°29' E 026°57'0 0.0
2016-Jun-27 00:33N 60°29' E 026°57'0 0.0
2016-Jun-26 23:33N 60°29' E 026°57'0 0.0
2016-Jun-26 22:33N 60°29' E 026°57'0 0.0
2016-Jun-26 21:33N 60°29' E 026°57'0 0.0
2016-Jun-26 20:33N 60°29' E 026°57'0 0.0
2016-Jun-26 19:33N 60°29' E 026°57'0 0.0
2016-Jun-26 18:34N 60°29' E 026°57'0 0.0
2016-Jun-26 17:33N 60°29' E 026°57'0 0.0
2016-Jun-26 16:33N 60°29' E 026°57'0 0.0
2016-Jun-26 15:33N 60°29' E 026°57'0 0.0
2016-Jun-26 14:33N 60°29' E 026°57'0 0.0
2016-Jun-26 13:34N 60°29' E 026°57'0 0.0
2016-Jun-26 12:33N 60°29' E 026°57'0 0.0
2016-Jun-26 11:33N 60°29' E 026°57'0 0.0
2016-Jun-26 10:34N 60°29' E 026°57'0 0.0
2016-Jun-26 09:33N 60°29' E 026°57'0 0.0
2016-Jun-26 08:33N 60°29' E 026°57'0 0.0
2016-Jun-26 07:34N 60°29' E 026°57'0 0.0
2016-Jun-26 06:33N 60°29' E 026°57'0 0.0
2016-Jun-26 05:33N 60°29' E 026°57'0 0.0
2016-Jun-26 04:33N 60°29' E 026°57'0 0.0
2016-Jun-26 03:34N 60°29' E 026°57'0 0.0
2016-Jun-26 02:33N 60°29' E 026°57'0 0.0
2016-Jun-26 01:34N 60°29' E 026°57'0 0.0
2016-Jun-26 00:33N 60°29' E 026°57'0 0.0
2016-Jun-25 23:34N 60°29' E 026°57'0 0.0
2016-Jun-25 22:33N 60°29' E 026°57'0 0.0
2016-Jun-25 21:33N 60°29' E 026°57'0 0.0
2016-Jun-25 20:33N 60°29' E 026°57'0 0.0
2016-Jun-25 19:33N 60°29' E 026°57'0 0.0
2016-Jun-25 18:34N 60°29' E 026°57'3 3.3
2016-Jun-25 17:34N 60°26' E 026°57'1111.3
2016-Jun-25 16:34N 60°20' E 026°38'1110.8
2016-Jun-25 15:34N 60°12' E 026°24'55 8.9
2016-Jun-25 09:22N 59°46' E 024°47'2110.8
2016-Jun-25 07:27N 59°41' E 024°08'1010.9
2016-Jun-25 06:32N 59°38' E 023°49'1110.8
2016-Jun-25 05:33N 59°35' E 023°28'  
Track history (hours):
 
Tides and Currents Weather Stations Pressure Air Temp Water Temp Dewpoint Dewpoint Depression Visibility Wind Speed Wind Dir Waves Ship Positions

Jolyn

Last reported at 2016-Jun-30 20:33 UTC. Time now 2016-Jun-30 21:27 UTC.
Position N 54°05' E 009°19'.

Length 89 m; draft 5.4 m.

Type: Cargo ship. MMSI: 306813000.

Date/timePositionNaut miles runAvg speedWind from/ knotsBaromVisibWave heightAir tempDewpointWater temp
2016-Jun-30 20:33N 54°05' E 009°19'8 7.4
2016-Jun-30 19:25N 54°11' E 009°29'7 7.7
2016-Jun-30 18:32N 54°16' E 009°38'8 8.0
2016-Jun-30 17:33N 54°21' E 009°47'7 7.2
2016-Jun-30 16:33N 54°21' E 009°59'6 5.6
2016-Jun-30 15:33N 54°22' E 010°08'2 2.0
2016-Jun-30 14:33N 54°23' E 010°11'9 9.1
2016-Jun-30 13:33N 54°30' E 010°20'1010.2
2016-Jun-30 12:33N 54°34' E 010°36'1010.3
2016-Jun-30 11:33N 54°35' E 010°54'1010.2
2016-Jun-30 10:33N 54°35' E 011°12'1010.2
2016-Jun-30 09:33N 54°31' E 011°28'1110.6
2016-Jun-30 08:33N 54°28' E 011°45'1010.2
2016-Jun-30 07:33N 54°27' E 012°03'8 8.4
2016-Jun-30 06:33N 54°33' E 012°13'10 9.7
2016-Jun-30 05:32N 54°40' E 012°24'3110.2
2016-Jun-30 02:31N 54°54' E 013°13'1210.7
2016-Jun-30 01:24N 54°58' E 013°32'910.4
2016-Jun-30 00:33N 55°01' E 013°46'1010.1
2016-Jun-29 23:33N 55°05' E 014°03'1010.3
2016-Jun-29 22:33N 55°12' E 014°15'1010.4
2016-Jun-29 21:34N 55°20' E 014°27'1010.2
2016-Jun-29 20:33N 55°27' E 014°40'1010.0
2016-Jun-29 19:33N 55°32' E 014°55'10 9.8
2016-Jun-29 18:33N 55°37' E 015°10'29810.1
2016-Jun-28 13:06N 59°09' E 021°40'1610.2
2016-Jun-28 11:32N 59°19' E 022°04'1010.3
2016-Jun-28 10:32N 59°25' E 022°20'1010.3
2016-Jun-28 09:33N 59°31' E 022°36'1110.6
2016-Jun-28 08:33N 59°34' E 022°56'1110.0
2016-Jun-28 07:26N 59°37' E 023°18'9 9.9
2016-Jun-28 06:33N 59°40' E 023°34'30 9.9
2016-Jun-28 03:30N 59°48' E 024°32'2010.0
2016-Jun-28 01:28N 59°52' E 025°12'31 9.6
2016-Jun-27 22:14N 60°04' E 026°09'7 9.9
2016-Jun-27 21:33N 60°08' E 026°20'10 9.7
2016-Jun-27 20:33N 60°16' E 026°30'1010.3
2016-Jun-27 19:33N 60°23' E 026°46'8 8.3
2016-Jun-27 18:33N 60°29' E 026°57'0 0.1
2016-Jun-27 17:30N 60°29' E 026°57'0 0.0
2016-Jun-27 16:33N 60°29' E 026°57'0 0.0
2016-Jun-27 15:33N 60°29' E 026°57'0 0.0
2016-Jun-27 14:33N 60°29' E 026°57'0 0.0
2016-Jun-27 13:33N 60°29' E 026°57'0 0.0
2016-Jun-27 12:33N 60°29' E 026°57'0 0.0
2016-Jun-27 11:33N 60°29' E 026°57'0 0.0
2016-Jun-27 10:33N 60°29' E 026°57'0 0.1
2016-Jun-27 09:33N 60°29' E 026°57'0 0.0
2016-Jun-27 08:33N 60°29' E 026°57'0 0.0
2016-Jun-27 07:33N 60°29' E 026°57'0 0.0
2016-Jun-27 06:33N 60°29' E 026°57'0 0.0
2016-Jun-27 05:33N 60°29' E 026°57'0 0.0
2016-Jun-27 04:33N 60°29' E 026°57'0 0.0
2016-Jun-27 03:33N 60°29' E 026°57'0 0.0
2016-Jun-27 02:33N 60°29' E 026°57'0 0.0
2016-Jun-27 01:33N 60°29' E 026°57'0 0.0
2016-Jun-27 00:33N 60°29' E 026°57'0 0.0
2016-Jun-26 23:33N 60°29' E 026°57'0 0.0
2016-Jun-26 22:33N 60°29' E 026°57'0 0.0
2016-Jun-26 21:33N 60°29' E 026°57'0 0.0
2016-Jun-26 20:33N 60°29' E 026°57'0 0.0
2016-Jun-26 19:33N 60°29' E 026°57'0 0.0
2016-Jun-26 18:34N 60°29' E 026°57'0 0.0
2016-Jun-26 17:33N 60°29' E 026°57'0 0.0
2016-Jun-26 16:33N 60°29' E 026°57'0 0.0
2016-Jun-26 15:33N 60°29' E 026°57'0 0.0
2016-Jun-26 14:33N 60°29' E 026°57'0 0.0
2016-Jun-26 13:34N 60°29' E 026°57'0 0.0
2016-Jun-26 12:33N 60°29' E 026°57'0 0.0
2016-Jun-26 11:33N 60°29' E 026°57'0 0.0
2016-Jun-26 10:34N 60°29' E 026°57'0 0.0
2016-Jun-26 09:33N 60°29' E 026°57'0 0.0
2016-Jun-26 08:33N 60°29' E 026°57'0 0.0
2016-Jun-26 07:34N 60°29' E 026°57'0 0.0
2016-Jun-26 06:33N 60°29' E 026°57'0 0.0
2016-Jun-26 05:33N 60°29' E 026°57'0 0.0
2016-Jun-26 04:33N 60°29' E 026°57'0 0.0
2016-Jun-26 03:34N 60°29' E 026°57'0 0.0
2016-Jun-26 02:33N 60°29' E 026°57'0 0.0
2016-Jun-26 01:34N 60°29' E 026°57'0 0.0
2016-Jun-26 00:33N 60°29' E 026°57'0 0.0
2016-Jun-25 23:34N 60°29' E 026°57'0 0.0
2016-Jun-25 22:33N 60°29' E 026°57'0 0.0
2016-Jun-25 21:33N 60°29' E 026°57'0 0.0
2016-Jun-25 20:33N 60°29' E 026°57'0 0.0
2016-Jun-25 19:33N 60°29' E 026°57'0 0.0
2016-Jun-25 18:34N 60°29' E 026°57'3 3.3
2016-Jun-25 17:34N 60°26' E 026°57'1111.3
2016-Jun-25 16:34N 60°20' E 026°38'1110.8
2016-Jun-25 15:34N 60°12' E 026°24'55 8.9
2016-Jun-25 09:22N 59°46' E 024°47'2110.8
2016-Jun-25 07:27N 59°41' E 024°08'1010.9
2016-Jun-25 06:32N 59°38' E 023°49'1110.8
2016-Jun-25 05:33N 59°35' E 023°28'  

Dump ship's entire track history